sensor_id;sensor_type;location;lat;lon;timestamp;P1;durP1;ratioP1;P2;durP2;ratioP2
11135;SDS011;5622;50.840;4.948;2022-09-12T00:01:58;12.77;;;10.23;;
11135;SDS011;5622;50.840;4.948;2022-09-12T00:04:25;12.40;;;10.07;;
11135;SDS011;5622;50.840;4.948;2022-09-12T00:06:52;12.13;;;9.23;;
11135;SDS011;5622;50.840;4.948;2022-09-12T00:09:19;12.00;;;9.30;;
11135;SDS011;5622;50.840;4.948;2022-09-12T00:11:47;12.53;;;8.90;;
11135;SDS011;5622;50.840;4.948;2022-09-12T00:14:14;14.20;;;10.47;;
11135;SDS011;5622;50.840;4.948;2022-09-12T00:16:43;12.63;;;11.00;;
11135;SDS011;5622;50.840;4.948;2022-09-12T00:19:12;12.73;;;10.37;;
11135;SDS011;5622;50.840;4.948;2022-09-12T00:21:39;12.67;;;10.47;;
11135;SDS011;5622;50.840;4.948;2022-09-12T00:24:06;13.17;;;10.13;;
11135;SDS011;5622;50.840;4.948;2022-09-12T00:26:33;12.87;;;9.50;;
11135;SDS011;5622;50.840;4.948;2022-09-12T00:29:00;11.43;;;10.23;;
11135;SDS011;5622;50.840;4.948;2022-09-12T00:31:27;15.33;;;10.83;;
11135;SDS011;5622;50.840;4.948;2022-09-12T00:33:55;15.87;;;11.43;;
11135;SDS011;5622;50.840;4.948;2022-09-12T00:36:26;14.67;;;11.40;;
11135;SDS011;5622;50.840;4.948;2022-09-12T00:38:55;13.47;;;10.97;;
11135;SDS011;5622;50.840;4.948;2022-09-12T00:41:24;12.53;;;10.20;;
11135;SDS011;5622;50.840;4.948;2022-09-12T00:43:53;12.20;;;10.90;;
11135;SDS011;5622;50.840;4.948;2022-09-12T00:46:25;14.13;;;11.73;;
11135;SDS011;5622;50.840;4.948;2022-09-12T00:48:58;15.80;;;11.67;;
11135;SDS011;5622;50.840;4.948;2022-09-12T00:51:30;12.97;;;10.50;;
11135;SDS011;5622;50.840;4.948;2022-09-12T00:54:00;19.70;;;12.27;;
11135;SDS011;5622;50.840;4.948;2022-09-12T00:56:33;15.77;;;12.30;;
11135;SDS011;5622;50.840;4.948;2022-09-12T00:59:04;15.40;;;12.10;;
11135;SDS011;5622;50.840;4.948;2022-09-12T01:01:36;15.77;;;12.33;;
11135;SDS011;5622;50.840;4.948;2022-09-12T01:04:05;15.20;;;12.87;;
11135;SDS011;5622;50.840;4.948;2022-09-12T01:06:35;14.70;;;11.77;;
11135;SDS011;5622;50.840;4.948;2022-09-12T01:09:05;15.20;;;11.63;;
11135;SDS011;5622;50.840;4.948;2022-09-12T01:11:33;15.53;;;11.20;;
11135;SDS011;5622;50.840;4.948;2022-09-12T01:14:03;16.00;;;12.60;;
11135;SDS011;5622;50.840;4.948;2022-09-12T01:16:30;14.37;;;11.43;;
11135;SDS011;5622;50.840;4.948;2022-09-12T01:19:01;13.97;;;10.57;;
11135;SDS011;5622;50.840;4.948;2022-09-12T01:21:41;14.10;;;11.63;;
11135;SDS011;5622;50.840;4.948;2022-09-12T01:24:33;13.27;;;11.30;;
11135;SDS011;5622;50.840;4.948;2022-09-12T01:27:24;14.77;;;12.47;;
11135;SDS011;5622;50.840;4.948;2022-09-12T01:30:20;14.73;;;12.53;;
11135;SDS011;5622;50.840;4.948;2022-09-12T01:32:58;17.53;;;12.20;;
11135;SDS011;5622;50.840;4.948;2022-09-12T01:35:38;13.70;;;11.37;;
11135;SDS011;5622;50.840;4.948;2022-09-12T01:38:13;14.97;;;11.30;;
11135;SDS011;5622;50.840;4.948;2022-09-12T01:40:50;15.07;;;12.10;;
11135;SDS011;5622;50.840;4.948;2022-09-12T01:43:26;16.27;;;11.70;;
11135;SDS011;5622;50.840;4.948;2022-09-12T01:46:02;16.27;;;12.17;;
11135;SDS011;5622;50.840;4.948;2022-09-12T01:48:37;17.70;;;12.33;;
11135;SDS011;5622;50.840;4.948;2022-09-12T01:51:11;14.67;;;12.03;;
11135;SDS011;5622;50.840;4.948;2022-09-12T01:53:45;15.13;;;12.57;;
11135;SDS011;5622;50.840;4.948;2022-09-12T01:56:16;14.70;;;12.33;;
11135;SDS011;5622;50.840;4.948;2022-09-12T01:58:49;13.57;;;11.47;;
11135;SDS011;5622;50.840;4.948;2022-09-12T02:01:22;15.50;;;12.53;;
11135;SDS011;5622;50.840;4.948;2022-09-12T02:03:56;17.37;;;12.60;;
11135;SDS011;5622;50.840;4.948;2022-09-12T02:06:29;14.90;;;11.97;;
11135;SDS011;5622;50.840;4.948;2022-09-12T02:09:01;13.10;;;11.47;;
11135;SDS011;5622;50.840;4.948;2022-09-12T02:11:32;16.40;;;11.00;;
11135;SDS011;5622;50.840;4.948;2022-09-12T02:14:02;16.30;;;11.33;;
11135;SDS011;5622;50.840;4.948;2022-09-12T02:16:39;16.37;;;10.83;;
11135;SDS011;5622;50.840;4.948;2022-09-12T02:19:09;16.27;;;11.80;;
11135;SDS011;5622;50.840;4.948;2022-09-12T02:21:41;13.13;;;11.30;;
11135;SDS011;5622;50.840;4.948;2022-09-12T02:24:12;14.93;;;10.97;;
11135;SDS011;5622;50.840;4.948;2022-09-12T02:26:42;13.27;;;11.10;;
11135;SDS011;5622;50.840;4.948;2022-09-12T02:29:13;14.23;;;11.10;;
11135;SDS011;5622;50.840;4.948;2022-09-12T02:31:43;14.00;;;11.20;;
11135;SDS011;5622;50.840;4.948;2022-09-12T02:34:14;13.07;;;10.33;;
11135;SDS011;5622;50.840;4.948;2022-09-12T02:36:58;13.07;;;9.70;;
11135;SDS011;5622;50.840;4.948;2022-09-12T02:39:31;10.73;;;9.23;;
11135;SDS011;5622;50.840;4.948;2022-09-12T02:41:59;6.87;;;6.03;;
11135;SDS011;5622;50.840;4.948;2022-09-12T02:44:27;7.53;;;6.30;;
11135;SDS011;5622;50.840;4.948;2022-09-12T02:46:59;6.57;;;5.97;;
11135;SDS011;5622;50.840;4.948;2022-09-12T02:49:30;7.17;;;6.40;;
11135;SDS011;5622;50.840;4.948;2022-09-12T02:51:57;8.37;;;7.47;;
11135;SDS011;5622;50.840;4.948;2022-09-12T02:54:25;9.07;;;8.17;;
11135;SDS011;5622;50.840;4.948;2022-09-12T02:56:53;12.57;;;9.13;;
11135;SDS011;5622;50.840;4.948;2022-09-12T02:59:20;13.40;;;9.70;;
11135;SDS011;5622;50.840;4.948;2022-09-12T03:02:09;12.57;;;10.50;;
11135;SDS011;5622;50.840;4.948;2022-09-12T03:04:52;13.70;;;10.17;;
11135;SDS011;5622;50.840;4.948;2022-09-12T03:07:37;15.27;;;10.73;;
11135;SDS011;5622;50.840;4.948;2022-09-12T03:10:24;14.43;;;10.77;;
11135;SDS011;5622;50.840;4.948;2022-09-12T03:13:01;12.47;;;10.50;;
11135;SDS011;5622;50.840;4.948;2022-09-12T03:15:39;12.57;;;10.80;;
11135;SDS011;5622;50.840;4.948;2022-09-12T03:18:25;14.13;;;10.70;;
11135;SDS011;5622;50.840;4.948;2022-09-12T03:21:09;16.70;;;11.90;;
11135;SDS011;5622;50.840;4.948;2022-09-12T03:23:41;11.93;;;10.63;;
11135;SDS011;5622;50.840;4.948;2022-09-12T03:26:15;11.50;;;10.20;;
11135;SDS011;5622;50.840;4.948;2022-09-12T03:28:47;12.93;;;11.30;;
11135;SDS011;5622;50.840;4.948;2022-09-12T03:31:15;14.07;;;11.27;;
11135;SDS011;5622;50.840;4.948;2022-09-12T03:33:45;14.70;;;11.07;;
11135;SDS011;5622;50.840;4.948;2022-09-12T03:36:13;14.13;;;11.60;;
11135;SDS011;5622;50.840;4.948;2022-09-12T03:38:43;15.40;;;12.07;;
11135;SDS011;5622;50.840;4.948;2022-09-12T03:41:10;14.90;;;12.03;;
11135;SDS011;5622;50.840;4.948;2022-09-12T03:43:37;14.07;;;12.17;;
11135;SDS011;5622;50.840;4.948;2022-09-12T03:46:04;13.23;;;11.37;;
11135;SDS011;5622;50.840;4.948;2022-09-12T03:48:31;18.00;;;11.87;;
11135;SDS011;5622;50.840;4.948;2022-09-12T03:51:00;18.47;;;11.80;;
11135;SDS011;5622;50.840;4.948;2022-09-12T03:53:28;15.20;;;12.60;;
11135;SDS011;5622;50.840;4.948;2022-09-12T03:55:55;15.97;;;11.80;;
11135;SDS011;5622;50.840;4.948;2022-09-12T03:58:23;14.37;;;11.73;;
11135;SDS011;5622;50.840;4.948;2022-09-12T04:00:50;15.63;;;11.90;;
11135;SDS011;5622;50.840;4.948;2022-09-12T04:03:17;13.57;;;11.67;;
11135;SDS011;5622;50.840;4.948;2022-09-12T04:05:44;16.53;;;12.17;;
11135;SDS011;5622;50.840;4.948;2022-09-12T04:08:14;15.13;;;10.67;;
11135;SDS011;5622;50.840;4.948;2022-09-12T04:10:41;15.47;;;10.40;;
11135;SDS011;5622;50.840;4.948;2022-09-12T04:13:08;15.10;;;11.17;;
11135;SDS011;5622;50.840;4.948;2022-09-12T04:15:35;13.97;;;11.53;;
11135;SDS011;5622;50.840;4.948;2022-09-12T04:18:02;15.70;;;11.90;;
11135;SDS011;5622;50.840;4.948;2022-09-12T04:20:29;15.77;;;11.67;;
11135;SDS011;5622;50.840;4.948;2022-09-12T04:22:56;15.40;;;12.07;;
11135;SDS011;5622;50.840;4.948;2022-09-12T04:25:25;16.23;;;11.37;;
11135;SDS011;5622;50.840;4.948;2022-09-12T04:27:52;15.23;;;11.57;;
11135;SDS011;5622;50.840;4.948;2022-09-12T04:30:19;14.37;;;11.73;;
11135;SDS011;5622;50.840;4.948;2022-09-12T04:32:46;17.80;;;13.20;;
11135;SDS011;5622;50.840;4.948;2022-09-12T04:35:13;17.80;;;12.73;;
11135;SDS011;5622;50.840;4.948;2022-09-12T04:37:40;17.63;;;12.57;;
11135;SDS011;5622;50.840;4.948;2022-09-12T04:40:08;16.17;;;11.97;;
11135;SDS011;5622;50.840;4.948;2022-09-12T04:42:37;15.93;;;12.40;;
11135;SDS011;5622;50.840;4.948;2022-09-12T04:45:04;16.93;;;12.97;;
11135;SDS011;5622;50.840;4.948;2022-09-12T04:47:32;17.27;;;13.10;;
11135;SDS011;5622;50.840;4.948;2022-09-12T04:49:59;15.87;;;12.80;;
11135;SDS011;5622;50.840;4.948;2022-09-12T04:52:26;15.43;;;12.50;;
11135;SDS011;5622;50.840;4.948;2022-09-12T04:54:53;16.37;;;12.23;;
11135;SDS011;5622;50.840;4.948;2022-09-12T04:57:20;14.90;;;12.17;;
11135;SDS011;5622;50.840;4.948;2022-09-12T04:59:48;14.63;;;11.73;;
11135;SDS011;5622;50.840;4.948;2022-09-12T05:02:16;14.27;;;11.67;;
11135;SDS011;5622;50.840;4.948;2022-09-12T05:04:43;15.73;;;11.70;;
11135;SDS011;5622;50.840;4.948;2022-09-12T05:07:10;14.10;;;11.80;;
11135;SDS011;5622;50.840;4.948;2022-09-12T05:09:37;14.70;;;11.60;;
11135;SDS011;5622;50.840;4.948;2022-09-12T05:12:05;16.00;;;10.80;;
11135;SDS011;5622;50.840;4.948;2022-09-12T05:14:33;16.40;;;12.10;;
11135;SDS011;5622;50.840;4.948;2022-09-12T05:17:02;14.07;;;11.80;;
11135;SDS011;5622;50.840;4.948;2022-09-12T05:19:30;15.53;;;11.37;;
11135;SDS011;5622;50.840;4.948;2022-09-12T05:21:57;15.50;;;11.07;;
11135;SDS011;5622;50.840;4.948;2022-09-12T05:24:25;14.23;;;10.40;;
11135;SDS011;5622;50.840;4.948;2022-09-12T05:26:52;14.47;;;11.53;;
11135;SDS011;5622;50.840;4.948;2022-09-12T05:29:20;14.00;;;10.90;;
11135;SDS011;5622;50.840;4.948;2022-09-12T05:31:47;12.90;;;9.97;;
11135;SDS011;5622;50.840;4.948;2022-09-12T05:34:15;11.90;;;9.50;;
11135;SDS011;5622;50.840;4.948;2022-09-12T05:36:42;12.17;;;9.13;;
11135;SDS011;5622;50.840;4.948;2022-09-12T05:39:09;12.70;;;9.90;;
11135;SDS011;5622;50.840;4.948;2022-09-12T05:41:37;12.37;;;9.87;;
11135;SDS011;5622;50.840;4.948;2022-09-12T05:44:04;14.63;;;11.03;;
11135;SDS011;5622;50.840;4.948;2022-09-12T05:46:34;13.17;;;9.70;;
11135;SDS011;5622;50.840;4.948;2022-09-12T05:49:04;16.53;;;10.77;;
11135;SDS011;5622;50.840;4.948;2022-09-12T05:51:35;14.83;;;10.93;;
11135;SDS011;5622;50.840;4.948;2022-09-12T05:54:04;21.00;;;11.33;;
11135;SDS011;5622;50.840;4.948;2022-09-12T05:56:32;13.73;;;11.23;;
11135;SDS011;5622;50.840;4.948;2022-09-12T05:59:04;13.20;;;10.77;;
11135;SDS011;5622;50.840;4.948;2022-09-12T06:01:32;12.23;;;10.57;;
11135;SDS011;5622;50.840;4.948;2022-09-12T06:04:01;14.07;;;11.17;;
11135;SDS011;5622;50.840;4.948;2022-09-12T06:06:30;17.47;;;10.90;;
11135;SDS011;5622;50.840;4.948;2022-09-12T06:09:03;12.50;;;10.60;;
11135;SDS011;5622;50.840;4.948;2022-09-12T06:11:32;15.90;;;10.67;;
11135;SDS011;5622;50.840;4.948;2022-09-12T06:14:01;13.23;;;11.47;;
11135;SDS011;5622;50.840;4.948;2022-09-12T06:16:30;14.60;;;11.50;;
11135;SDS011;5622;50.840;4.948;2022-09-12T06:19:00;16.27;;;12.07;;
11135;SDS011;5622;50.840;4.948;2022-09-12T06:21:28;13.10;;;10.43;;
11135;SDS011;5622;50.840;4.948;2022-09-12T06:23:56;15.50;;;12.17;;
11135;SDS011;5622;50.840;4.948;2022-09-12T06:26:25;12.40;;;10.90;;
11135;SDS011;5622;50.840;4.948;2022-09-12T06:28:54;13.07;;;10.53;;
11135;SDS011;5622;50.840;4.948;2022-09-12T06:31:22;18.73;;;12.00;;
11135;SDS011;5622;50.840;4.948;2022-09-12T06:33:51;13.90;;;11.33;;
11135;SDS011;5622;50.840;4.948;2022-09-12T06:36:20;14.63;;;11.53;;
11135;SDS011;5622;50.840;4.948;2022-09-12T06:38:52;14.77;;;11.40;;
11135;SDS011;5622;50.840;4.948;2022-09-12T06:41:20;17.17;;;10.90;;
11135;SDS011;5622;50.840;4.948;2022-09-12T06:43:48;15.43;;;11.47;;
11135;SDS011;5622;50.840;4.948;2022-09-12T06:46:16;15.83;;;11.60;;
11135;SDS011;5622;50.840;4.948;2022-09-12T06:48:43;17.20;;;11.50;;
11135;SDS011;5622;50.840;4.948;2022-09-12T06:51:11;16.37;;;11.90;;
11135;SDS011;5622;50.840;4.948;2022-09-12T06:53:40;16.17;;;11.77;;
11135;SDS011;5622;50.840;4.948;2022-09-12T06:56:10;16.30;;;11.27;;
11135;SDS011;5622;50.840;4.948;2022-09-12T06:58:39;15.50;;;12.30;;
11135;SDS011;5622;50.840;4.948;2022-09-12T07:01:09;17.43;;;13.03;;
11135;SDS011;5622;50.840;4.948;2022-09-12T07:03:37;16.63;;;14.10;;
11135;SDS011;5622;50.840;4.948;2022-09-12T07:06:05;17.90;;;12.50;;
11135;SDS011;5622;50.840;4.948;2022-09-12T07:08:35;16.33;;;13.33;;
11135;SDS011;5622;50.840;4.948;2022-09-12T07:11:07;19.90;;;13.07;;
11135;SDS011;5622;50.840;4.948;2022-09-12T07:13:35;19.43;;;12.90;;
11135;SDS011;5622;50.840;4.948;2022-09-12T07:16:02;16.00;;;12.23;;
11135;SDS011;5622;50.840;4.948;2022-09-12T07:18:32;15.87;;;11.53;;
11135;SDS011;5622;50.840;4.948;2022-09-12T07:20:59;23.00;;;13.97;;
11135;SDS011;5622;50.840;4.948;2022-09-12T07:23:29;18.07;;;11.67;;
11135;SDS011;5622;50.840;4.948;2022-09-12T07:25:57;16.27;;;13.03;;
11135;SDS011;5622;50.840;4.948;2022-09-12T07:28:26;16.77;;;12.80;;
11135;SDS011;5622;50.840;4.948;2022-09-12T07:30:54;16.07;;;11.77;;
11135;SDS011;5622;50.840;4.948;2022-09-12T07:33:22;14.60;;;11.60;;
11135;SDS011;5622;50.840;4.948;2022-09-12T07:35:54;15.63;;;11.93;;
11135;SDS011;5622;50.840;4.948;2022-09-12T07:38:25;12.87;;;10.80;;
11135;SDS011;5622;50.840;4.948;2022-09-12T07:40:52;13.73;;;11.37;;
11135;SDS011;5622;50.840;4.948;2022-09-12T07:43:19;16.03;;;12.07;;
11135;SDS011;5622;50.840;4.948;2022-09-12T07:45:47;16.53;;;10.90;;
11135;SDS011;5622;50.840;4.948;2022-09-12T07:48:14;11.57;;;9.10;;
11135;SDS011;5622;50.840;4.948;2022-09-12T07:50:41;13.93;;;10.37;;
11135;SDS011;5622;50.840;4.948;2022-09-12T07:53:10;14.23;;;10.17;;
11135;SDS011;5622;50.840;4.948;2022-09-12T07:55:37;14.77;;;11.83;;
11135;SDS011;5622;50.840;4.948;2022-09-12T07:58:04;14.97;;;11.27;;
11135;SDS011;5622;50.840;4.948;2022-09-12T08:00:31;17.60;;;12.07;;
11135;SDS011;5622;50.840;4.948;2022-09-12T08:03:00;18.57;;;13.80;;
11135;SDS011;5622;50.840;4.948;2022-09-12T08:05:28;15.70;;;12.27;;
11135;SDS011;5622;50.840;4.948;2022-09-12T08:07:55;18.47;;;12.40;;
11135;SDS011;5622;50.840;4.948;2022-09-12T08:10:24;17.63;;;12.77;;
11135;SDS011;5622;50.840;4.948;2022-09-12T08:12:51;14.57;;;10.67;;
11135;SDS011;5622;50.840;4.948;2022-09-12T08:15:18;12.83;;;11.00;;
11135;SDS011;5622;50.840;4.948;2022-09-12T08:17:45;12.60;;;9.70;;
11135;SDS011;5622;50.840;4.948;2022-09-12T08:20:12;12.07;;;10.20;;
11135;SDS011;5622;50.840;4.948;2022-09-12T08:22:39;12.17;;;10.07;;
11135;SDS011;5622;50.840;4.948;2022-09-12T08:25:07;15.10;;;10.03;;
11135;SDS011;5622;50.840;4.948;2022-09-12T08:27:36;13.20;;;9.77;;
11135;SDS011;5622;50.840;4.948;2022-09-12T08:30:04;11.43;;;8.70;;
11135;SDS011;5622;50.840;4.948;2022-09-12T08:32:33;9.43;;;8.43;;
11135;SDS011;5622;50.840;4.948;2022-09-12T08:35:00;9.33;;;7.70;;
11135;SDS011;5622;50.840;4.948;2022-09-12T08:37:28;10.33;;;8.20;;
11135;SDS011;5622;50.840;4.948;2022-09-12T08:39:55;9.80;;;7.67;;
11135;SDS011;5622;50.840;4.948;2022-09-12T08:42:25;9.23;;;7.83;;
11135;SDS011;5622;50.840;4.948;2022-09-12T08:45:08;10.40;;;7.53;;
11135;SDS011;5622;50.840;4.948;2022-09-12T08:47:43;9.67;;;7.13;;
11135;SDS011;5622;50.840;4.948;2022-09-12T08:50:13;8.30;;;7.13;;
11135;SDS011;5622;50.840;4.948;2022-09-12T08:52:46;8.67;;;7.73;;
11135;SDS011;5622;50.840;4.948;2022-09-12T08:55:30;10.00;;;7.60;;
11135;SDS011;5622;50.840;4.948;2022-09-12T08:58:00;8.33;;;7.20;;
11135;SDS011;5622;50.840;4.948;2022-09-12T09:00:40;7.93;;;6.60;;
11135;SDS011;5622;50.840;4.948;2022-09-12T09:09:18;9.70;;;6.17;;
11135;SDS011;5622;50.840;4.948;2022-09-12T09:11:56;8.00;;;6.60;;
11135;SDS011;5622;50.840;4.948;2022-09-12T09:14:36;10.40;;;6.37;;
11135;SDS011;5622;50.840;4.948;2022-09-12T09:17:16;7.37;;;5.97;;
11135;SDS011;5622;50.840;4.948;2022-09-12T09:19:50;7.90;;;5.50;;
11135;SDS011;5622;50.840;4.948;2022-09-12T09:22:28;7.20;;;5.63;;
11135;SDS011;5622;50.840;4.948;2022-09-12T09:25:04;5.60;;;5.10;;
11135;SDS011;5622;50.840;4.948;2022-09-12T09:27:38;6.90;;;5.57;;
11135;SDS011;5622;50.840;4.948;2022-09-12T09:30:12;7.80;;;5.00;;
11135;SDS011;5622;50.840;4.948;2022-09-12T09:32:42;4.87;;;4.37;;
11135;SDS011;5622;50.840;4.948;2022-09-12T09:35:14;4.73;;;4.30;;
11135;SDS011;5622;50.840;4.948;2022-09-12T09:37:48;4.47;;;3.90;;
11135;SDS011;5622;50.840;4.948;2022-09-12T09:40:36;6.40;;;3.77;;
11135;SDS011;5622;50.840;4.948;2022-09-12T09:43:14;4.37;;;3.70;;
11135;SDS011;5622;50.840;4.948;2022-09-12T09:45:47;3.73;;;2.90;;
11135;SDS011;5622;50.840;4.948;2022-09-12T09:48:17;3.50;;;3.20;;
11135;SDS011;5622;50.840;4.948;2022-09-12T09:50:46;6.10;;;5.23;;
11135;SDS011;5622;50.840;4.948;2022-09-12T09:53:26;6.03;;;5.30;;
11135;SDS011;5622;50.840;4.948;2022-09-12T09:56:00;4.90;;;4.40;;
11135;SDS011;5622;50.840;4.948;2022-09-12T09:58:33;5.03;;;3.60;;
11135;SDS011;5622;50.840;4.948;2022-09-12T10:01:01;3.77;;;3.23;;
11135;SDS011;5622;50.840;4.948;2022-09-12T10:03:33;5.03;;;4.50;;
11135;SDS011;5622;50.840;4.948;2022-09-12T10:06:05;5.13;;;3.27;;
11135;SDS011;5622;50.840;4.948;2022-09-12T10:08:34;3.93;;;3.37;;
11135;SDS011;5622;50.840;4.948;2022-09-12T10:11:03;6.93;;;3.33;;
11135;SDS011;5622;50.840;4.948;2022-09-12T10:13:36;4.60;;;3.23;;
11135;SDS011;5622;50.840;4.948;2022-09-12T10:16:16;3.03;;;2.73;;
11135;SDS011;5622;50.840;4.948;2022-09-12T10:18:46;4.83;;;3.03;;
11135;SDS011;5622;50.840;4.948;2022-09-12T10:21:26;4.27;;;3.60;;
11135;SDS011;5622;50.840;4.948;2022-09-12T10:23:58;3.90;;;3.50;;
11135;SDS011;5622;50.840;4.948;2022-09-12T10:26:30;3.70;;;3.40;;
11135;SDS011;5622;50.840;4.948;2022-09-12T10:29:02;4.47;;;3.40;;
11135;SDS011;5622;50.840;4.948;2022-09-12T10:31:40;4.40;;;3.00;;
11135;SDS011;5622;50.840;4.948;2022-09-12T10:34:22;3.90;;;3.40;;
11135;SDS011;5622;50.840;4.948;2022-09-12T10:36:58;4.50;;;3.60;;
11135;SDS011;5622;50.840;4.948;2022-09-12T10:39:28;4.07;;;3.30;;
11135;SDS011;5622;50.840;4.948;2022-09-12T10:41:57;5.40;;;3.57;;
11135;SDS011;5622;50.840;4.948;2022-09-12T10:44:25;8.07;;;3.17;;
11135;SDS011;5622;50.840;4.948;2022-09-12T10:46:54;3.40;;;3.10;;
11135;SDS011;5622;50.840;4.948;2022-09-12T10:49:25;4.93;;;3.47;;
11135;SDS011;5622;50.840;4.948;2022-09-12T10:51:54;3.10;;;2.77;;
11135;SDS011;5622;50.840;4.948;2022-09-12T10:54:24;5.73;;;3.10;;
11135;SDS011;5622;50.840;4.948;2022-09-12T10:57:00;4.57;;;3.13;;
11135;SDS011;5622;50.840;4.948;2022-09-12T11:00:06;3.87;;;2.73;;
11135;SDS011;5622;50.840;4.948;2022-09-12T11:02:46;3.93;;;2.63;;
11135;SDS011;5622;50.840;4.948;2022-09-12T11:05:21;4.13;;;2.60;;
11135;SDS011;5622;50.840;4.948;2022-09-12T11:08:13;2.90;;;2.47;;
11135;SDS011;5622;50.840;4.948;2022-09-12T11:11:04;3.90;;;2.60;;
11135;SDS011;5622;50.840;4.948;2022-09-12T11:13:44;4.33;;;2.80;;
11135;SDS011;5622;50.840;4.948;2022-09-12T11:16:22;8.23;;;3.27;;
11135;SDS011;5622;50.840;4.948;2022-09-12T11:19:08;3.30;;;3.00;;
11135;SDS011;5622;50.840;4.948;2022-09-12T11:21:58;4.50;;;3.20;;
11135;SDS011;5622;50.840;4.948;2022-09-12T11:24:43;2.97;;;2.43;;
11135;SDS011;5622;50.840;4.948;2022-09-12T11:27:37;8.63;;;2.77;;
11135;SDS011;5622;50.840;4.948;2022-09-12T11:30:19;2.60;;;2.40;;
11135;SDS011;5622;50.840;4.948;2022-09-12T11:32:56;2.60;;;2.40;;
11135;SDS011;5622;50.840;4.948;2022-09-12T11:35:31;2.93;;;2.73;;
11135;SDS011;5622;50.840;4.948;2022-09-12T11:38:07;3.47;;;2.53;;
11135;SDS011;5622;50.840;4.948;2022-09-12T11:40:52;3.33;;;2.40;;
11135;SDS011;5622;50.840;4.948;2022-09-12T11:43:22;3.17;;;2.60;;
11135;SDS011;5622;50.840;4.948;2022-09-12T11:45:56;2.20;;;2.00;;
11135;SDS011;5622;50.840;4.948;2022-09-12T11:48:32;3.43;;;2.20;;
11135;SDS011;5622;50.840;4.948;2022-09-12T11:51:05;3.47;;;2.20;;
11135;SDS011;5622;50.840;4.948;2022-09-12T11:53:43;2.27;;;2.07;;
11135;SDS011;5622;50.840;4.948;2022-09-12T11:56:16;2.73;;;2.53;;
11135;SDS011;5622;50.840;4.948;2022-09-12T11:58:45;2.83;;;2.57;;
11135;SDS011;5622;50.840;4.948;2022-09-12T12:01:18;2.40;;;2.17;;
11135;SDS011;5622;50.840;4.948;2022-09-12T12:03:48;2.67;;;2.03;;
11135;SDS011;5622;50.840;4.948;2022-09-12T12:06:18;3.30;;;2.70;;
11135;SDS011;5622;50.840;4.948;2022-09-12T12:08:51;2.83;;;2.23;;
11135;SDS011;5622;50.840;4.948;2022-09-12T12:11:24;2.20;;;2.00;;
11135;SDS011;5622;50.840;4.948;2022-09-12T12:13:55;2.60;;;2.40;;
11135;SDS011;5622;50.840;4.948;2022-09-12T12:16:26;2.67;;;2.47;;
11135;SDS011;5622;50.840;4.948;2022-09-12T12:18:55;3.33;;;2.40;;
11135;SDS011;5622;50.840;4.948;2022-09-12T12:21:33;2.33;;;2.13;;
11135;SDS011;5622;50.840;4.948;2022-09-12T12:24:16;2.33;;;2.13;;
11135;SDS011;5622;50.840;4.948;2022-09-12T12:26:56;2.77;;;2.30;;
11135;SDS011;5622;50.840;4.948;2022-09-12T12:29:40;2.27;;;2.07;;
11135;SDS011;5622;50.840;4.948;2022-09-12T12:32:22;2.33;;;2.13;;
11135;SDS011;5622;50.840;4.948;2022-09-12T12:34:50;3.67;;;2.47;;
11135;SDS011;5622;50.840;4.948;2022-09-12T12:37:51;2.70;;;2.20;;
11135;SDS011;5622;50.840;4.948;2022-09-12T12:40:26;2.20;;;2.00;;
11135;SDS011;5622;50.840;4.948;2022-09-12T12:42:59;3.03;;;2.10;;
11135;SDS011;5622;50.840;4.948;2022-09-12T12:51:47;2.97;;;2.00;;
11135;SDS011;5622;50.840;4.948;2022-09-12T12:54:29;3.17;;;2.17;;
11135;SDS011;5622;50.840;4.948;2022-09-12T12:57:17;2.17;;;1.97;;
11135;SDS011;5622;50.840;4.948;2022-09-12T12:59:51;2.17;;;1.90;;
11135;SDS011;5622;50.840;4.948;2022-09-12T13:02:22;2.07;;;1.87;;
11135;SDS011;5622;50.840;4.948;2022-09-12T13:04:54;2.30;;;2.10;;
11135;SDS011;5622;50.840;4.948;2022-09-12T13:07:24;1.97;;;1.80;;
11135;SDS011;5622;50.840;4.948;2022-09-12T13:09:56;2.20;;;2.00;;
11135;SDS011;5622;50.840;4.948;2022-09-12T13:12:27;3.03;;;2.20;;
11135;SDS011;5622;50.840;4.948;2022-09-12T13:14:58;1.83;;;1.70;;
11135;SDS011;5622;50.840;4.948;2022-09-12T13:17:33;1.97;;;1.87;;
11135;SDS011;5622;50.840;4.948;2022-09-12T13:22:49;3.87;;;2.03;;
11135;SDS011;5622;50.840;4.948;2022-09-12T13:25:22;3.43;;;2.10;;
11135;SDS011;5622;50.840;4.948;2022-09-12T13:28:00;2.13;;;1.93;;
11135;SDS011;5622;50.840;4.948;2022-09-12T13:30:30;3.83;;;1.90;;
11135;SDS011;5622;50.840;4.948;2022-09-12T13:33:09;2.20;;;1.90;;
11135;SDS011;5622;50.840;4.948;2022-09-12T13:38:52;3.07;;;1.83;;
11135;SDS011;5622;50.840;4.948;2022-09-12T13:41:33;2.50;;;1.90;;
11135;SDS011;5622;50.840;4.948;2022-09-12T13:44:15;2.70;;;1.83;;
11135;SDS011;5622;50.840;4.948;2022-09-12T13:46:45;1.83;;;1.73;;
11135;SDS011;5622;50.840;4.948;2022-09-12T13:49:16;1.80;;;1.70;;
11135;SDS011;5622;50.840;4.948;2022-09-12T13:51:50;2.70;;;1.80;;
11135;SDS011;5622;50.840;4.948;2022-09-12T13:54:24;1.97;;;1.77;;
11135;SDS011;5622;50.840;4.948;2022-09-12T13:56:52;2.00;;;1.80;;
11135;SDS011;5622;50.840;4.948;2022-09-12T13:59:21;2.10;;;1.90;;
11135;SDS011;5622;50.840;4.948;2022-09-12T14:01:48;1.83;;;1.67;;
11135;SDS011;5622;50.840;4.948;2022-09-12T14:04:16;2.33;;;1.70;;
11135;SDS011;5622;50.840;4.948;2022-09-12T14:07:07;3.50;;;1.80;;
11135;SDS011;5622;50.840;4.948;2022-09-12T14:09:38;2.20;;;1.63;;
11135;SDS011;5622;50.840;4.948;2022-09-12T14:12:14;1.70;;;1.60;;
11135;SDS011;5622;50.840;4.948;2022-09-12T14:14:51;1.70;;;1.53;;
11135;SDS011;5622;50.840;4.948;2022-09-12T14:17:22;1.67;;;1.50;;
11135;SDS011;5622;50.840;4.948;2022-09-12T14:19:52;1.73;;;1.63;;
11135;SDS011;5622;50.840;4.948;2022-09-12T14:22:23;1.87;;;1.77;;
11135;SDS011;5622;50.840;4.948;2022-09-12T14:24:52;1.93;;;1.70;;
11135;SDS011;5622;50.840;4.948;2022-09-12T14:27:21;2.80;;;1.60;;
11135;SDS011;5622;50.840;4.948;2022-09-12T14:29:55;2.37;;;1.87;;
11135;SDS011;5622;50.840;4.948;2022-09-12T14:32:27;1.80;;;1.70;;
11135;SDS011;5622;50.840;4.948;2022-09-12T14:35:04;1.93;;;1.60;;
11135;SDS011;5622;50.840;4.948;2022-09-12T14:37:42;3.67;;;2.03;;
11135;SDS011;5622;50.840;4.948;2022-09-12T14:40:14;2.27;;;2.00;;
11135;SDS011;5622;50.840;4.948;2022-09-12T14:42:42;2.93;;;1.93;;
11135;SDS011;5622;50.840;4.948;2022-09-12T14:45:15;1.77;;;1.60;;
11135;SDS011;5622;50.840;4.948;2022-09-12T14:47:49;5.37;;;1.90;;
11135;SDS011;5622;50.840;4.948;2022-09-12T14:50:18;1.97;;;1.73;;
11135;SDS011;5622;50.840;4.948;2022-09-12T14:53:00;5.90;;;1.63;;
11135;SDS011;5622;50.840;4.948;2022-09-12T14:55:29;2.87;;;1.90;;
11135;SDS011;5622;50.840;4.948;2022-09-12T14:58:15;1.87;;;1.50;;
11135;SDS011;5622;50.840;4.948;2022-09-12T15:00:58;3.10;;;1.67;;
11135;SDS011;5622;50.840;4.948;2022-09-12T15:03:28;1.40;;;1.30;;
11135;SDS011;5622;50.840;4.948;2022-09-12T15:05:57;1.53;;;1.43;;
11135;SDS011;5622;50.840;4.948;2022-09-12T15:08:24;2.17;;;1.60;;
11135;SDS011;5622;50.840;4.948;2022-09-12T15:10:52;1.90;;;1.70;;
11135;SDS011;5622;50.840;4.948;2022-09-12T15:13:21;1.57;;;1.47;;
11135;SDS011;5622;50.840;4.948;2022-09-12T15:15:51;3.53;;;1.77;;
11135;SDS011;5622;50.840;4.948;2022-09-12T15:18:21;1.90;;;1.80;;
11135;SDS011;5622;50.840;4.948;2022-09-12T15:20:50;1.50;;;1.40;;
11135;SDS011;5622;50.840;4.948;2022-09-12T15:23:24;1.67;;;1.50;;
11135;SDS011;5622;50.840;4.948;2022-09-12T15:25:56;1.93;;;1.70;;
11135;SDS011;5622;50.840;4.948;2022-09-12T15:28:23;2.83;;;1.73;;
11135;SDS011;5622;50.840;4.948;2022-09-12T15:30:52;2.57;;;1.73;;
11135;SDS011;5622;50.840;4.948;2022-09-12T15:33:23;2.60;;;1.70;;
11135;SDS011;5622;50.840;4.948;2022-09-12T15:35:50;1.60;;;1.50;;